createdAt,value
2018-05-04T00:02:35.777Z,19.53
2018-05-04T00:17:37.261Z,19.47
2018-05-04T00:32:35.084Z,19.42
2018-05-04T00:47:34.306Z,19.29
2018-05-04T01:02:34.625Z,19.27
2018-05-04T01:17:35.398Z,19.29
2018-05-04T01:32:34.706Z,19.31
2018-05-04T01:47:39.344Z,19.35
2018-05-04T02:02:36.525Z,19.27
2018-05-04T02:17:34.948Z,19.21
2018-05-04T02:32:36.523Z,19.17
2018-05-04T02:47:36.503Z,19.02
2018-05-04T03:02:40.517Z,18.60
2018-05-04T03:17:36.828Z,18.11
2018-05-04T03:32:34.799Z,17.96
2018-05-04T03:47:34.282Z,18.14
2018-05-04T04:02:46.288Z,18.35
2018-05-04T04:17:35.652Z,18.48
2018-05-04T04:32:36.498Z,18.31
2018-05-04T04:47:34.298Z,18.64
2018-05-04T05:02:34.758Z,18.77
2018-05-04T05:17:34.982Z,19.01
2018-05-04T05:32:34.879Z,19.47
2018-05-04T05:47:37.091Z,20.34
2018-05-04T06:02:35.262Z,20.67
2018-05-04T06:17:35.111Z,20.92
2018-05-04T06:32:35.123Z,21.20
2018-05-04T06:47:39.734Z,22.62
2018-05-04T07:02:34.611Z,22.75
2018-05-04T07:17:37.458Z,23.71
2018-05-04T07:32:34.612Z,23.52
2018-05-04T07:47:34.553Z,23.82
2018-05-04T08:02:36.989Z,23.94
2018-05-04T08:17:35.178Z,23.90
2018-05-04T08:32:35.202Z,24.75
2018-05-04T08:47:37.237Z,24.17
2018-05-04T09:02:35.255Z,24.60
2018-05-04T09:17:35.198Z,25.74
2018-05-04T09:32:35.278Z,26.61
2018-05-04T09:47:34.935Z,26.12
2018-05-04T10:02:36.539Z,25.85
2018-05-04T10:17:37.443Z,26.19
2018-05-04T10:32:36.918Z,26.42
2018-05-04T10:47:34.382Z,26.07
2018-05-04T11:02:34.866Z,25.82
2018-05-04T11:17:34.789Z,25.54
2018-05-04T11:32:36.182Z,25.71
2018-05-04T11:47:37.116Z,26.09
2018-05-04T12:02:36.155Z,26.60
2018-05-04T12:17:35.118Z,26.46
2018-05-04T12:32:35.541Z,25.98
2018-05-04T12:47:37.126Z,25.69
2018-05-04T13:02:37.466Z,25.61
2018-05-04T13:17:37.398Z,25.59
2018-05-04T13:32:34.579Z,25.06
2018-05-04T13:47:34.311Z,23.97
2018-05-04T14:02:34.057Z,23.21
2018-05-04T14:17:34.676Z,22.76
2018-05-04T14:32:34.863Z,22.29
2018-05-04T14:47:37.030Z,21.65
2018-05-04T15:02:34.842Z,21.25
2018-05-04T15:17:35.046Z,20.95
2018-05-04T15:32:34.101Z,20.99
2018-05-04T15:47:36.102Z,21.43
2018-05-04T16:02:34.382Z,21.57
2018-05-04T16:17:34.193Z,21.47
2018-05-04T16:32:34.262Z,21.67
2018-05-04T16:47:34.182Z,21.45
2018-05-04T17:02:34.470Z,20.93
2018-05-04T17:17:34.547Z,20.70
2018-05-04T17:32:34.974Z,20.36
2018-05-04T17:47:34.454Z,20.14
2018-05-04T18:02:50.227Z,19.95
2018-05-04T18:17:41.205Z,19.89
2018-05-04T18:32:36.524Z,19.79
2018-05-04T18:47:35.360Z,20.07
2018-05-04T19:02:45.066Z,20.37
2018-05-04T19:17:34.788Z,20.30
2018-05-04T19:32:36.978Z,20.16
2018-05-04T19:47:38.682Z,20.03
2018-05-04T20:02:34.509Z,19.91
2018-05-04T20:17:39.609Z,20.08
2018-05-04T20:32:34.800Z,20.21
2018-05-04T20:47:34.940Z,20.26
2018-05-04T21:02:35.135Z,20.35
2018-05-04T21:17:37.022Z,20.38
2018-05-04T21:32:34.426Z,20.46
2018-05-04T21:47:36.405Z,20.53
2018-05-04T22:02:34.293Z,20.84
2018-05-04T22:17:34.673Z,21.01
2018-05-04T22:32:34.577Z,20.97
2018-05-04T22:47:36.673Z,20.90
2018-05-04T23:02:34.702Z,20.80
2018-05-04T23:17:33.894Z,20.64
2018-05-04T23:32:34.459Z,20.60
2018-05-04T23:47:34.854Z,20.50
